White Plains, Maryland
Current Conditions -  °F | °C
As of 12:58 AM on Thursday 23 Oct 2014 (Local Time) from KDAA Reporting Station
Scattered Clouds Scattered Clouds  
Wind Chill: 53°   Ceiling: Unl
Heat Index: 53°   Visibility: 10mi
Dew Point: 42°   Wind: 18mph
Humidity: 69%   Direction: 310°NW
Pressure: 29.93"   Gusts: 25mph
Location:  38.59°N, 76.98°W
Report Text: KDAA 230458Z AUTO 31016G22KT 10SM SCT060 11/06 A2993 RMK AO2 SLP139 T01140058 401360114
Loading
Personal Weather Stations






























Interactive Weather Map
Tropical Storm Tracking
New forecast layout! Learn more

10-Day Weather Forecast

Advertisements
Track Severe Weather on mobile